createdAt,value
2022-11-01T00:02:00.943Z,96599.16
2022-11-01T00:04:28.062Z,96596.19
2022-11-01T00:06:55.163Z,96598.59
2022-11-01T00:09:22.253Z,96594.94
2022-11-01T00:11:49.482Z,96599.59
2022-11-01T00:14:18.762Z,96591.19
2022-11-01T00:16:45.672Z,96595.63
2022-11-01T00:19:13.990Z,96596.66
2022-11-01T00:21:40.954Z,96591.44
2022-11-01T00:24:08.094Z,96591.06
2022-11-01T00:26:35.349Z,96593.47
2022-11-01T00:29:02.410Z,96594.72
2022-11-01T00:31:29.953Z,96595.66
2022-11-01T00:33:57.100Z,96595.66
2022-11-01T00:36:25.243Z,96589.16
2022-11-01T00:38:52.828Z,96586.75
2022-11-01T00:41:21.133Z,96594.97
2022-11-01T00:43:47.992Z,96590.06
2022-11-01T00:46:15.135Z,96582.22
2022-11-01T00:48:42.199Z,96588.03
2022-11-01T00:51:09.170Z,96580.50
2022-11-01T00:53:36.182Z,96574.13
2022-11-01T00:56:07.223Z,96574.13
2022-11-01T00:58:35.642Z,96582.31
2022-11-01T01:01:02.983Z,96582.88
2022-11-01T01:03:29.982Z,96586.75
2022-11-01T01:05:57.062Z,96581.50
2022-11-01T01:08:24.723Z,96583.47
2022-11-01T01:10:51.922Z,96579.78
2022-11-01T01:13:19.403Z,96582.41
2022-11-01T01:15:46.492Z,96574.91
2022-11-01T01:18:14.143Z,96571.03
2022-11-01T01:20:41.202Z,96572.84
2022-11-01T01:23:08.325Z,96568.09
2022-11-01T01:25:35.422Z,96565.44
2022-11-01T01:28:02.655Z,96564.53
2022-11-01T01:30:29.802Z,96558.41
2022-11-01T01:32:56.802Z,96558.63
2022-11-01T01:35:23.823Z,96557.03
2022-11-01T01:37:50.903Z,96551.44
2022-11-01T01:40:17.922Z,96554.66
2022-11-01T01:42:44.984Z,96549.31
2022-11-01T01:45:26.782Z,96548.84
2022-11-01T01:47:55.910Z,96544.63
2022-11-01T01:50:36.844Z,96538.59
2022-11-01T01:53:12.702Z,96540.50
2022-11-01T01:56:26.982Z,96538.91
2022-11-01T01:59:06.961Z,96549.03
2022-11-01T02:01:37.309Z,96542.56
2022-11-01T02:04:09.322Z,96546.06
2022-11-01T02:06:38.024Z,96548.91
2022-11-01T02:09:07.222Z,96542.75
2022-11-01T02:11:34.903Z,96545.38
2022-11-01T02:14:03.422Z,96549.00
2022-11-01T02:16:45.109Z,96542.75
2022-11-01T02:19:54.182Z,96535.03
2022-11-01T02:22:52.088Z,96535.47
2022-11-01T02:25:41.246Z,96536.25
2022-11-01T02:28:46.073Z,96536.81
2022-11-01T02:31:50.563Z,96526.44
2022-11-01T02:34:33.482Z,96530.66
2022-11-01T02:37:28.890Z,96531.09
2022-11-01T02:40:08.562Z,96536.56
2022-11-01T02:42:55.584Z,96531.53
2022-11-01T02:45:34.605Z,96527.13
2022-11-01T02:48:03.027Z,96530.53
2022-11-01T02:50:54.203Z,96527.13
2022-11-01T02:53:21.264Z,96521.09
2022-11-01T02:55:48.325Z,96533.03
2022-11-01T02:58:27.882Z,96526.09
2022-11-01T03:00:57.265Z,96522.91
2022-11-01T03:03:31.878Z,96522.69
2022-11-01T03:06:01.823Z,96518.03
2022-11-01T03:08:34.886Z,96522.00
2022-11-01T03:11:11.327Z,96520.78
2022-11-01T03:13:57.910Z,96514.63
2022-11-01T03:16:52.047Z,96521.88
2022-11-01T03:19:29.243Z,96521.44
2022-11-01T03:21:59.342Z,96520.50
2022-11-01T03:25:02.282Z,96515.53
2022-11-01T03:27:36.062Z,96514.44
2022-11-01T03:30:09.790Z,96518.53
2022-11-01T03:32:47.078Z,96505.91
2022-11-01T03:35:24.664Z,96517.56
2022-11-01T03:37:55.723Z,96514.94
2022-11-01T03:40:26.585Z,96518.94
2022-11-01T03:42:58.105Z,96518.94
2022-11-01T03:45:27.087Z,96517.34
2022-11-01T03:47:54.142Z,96515.25
2022-11-01T03:50:22.812Z,96513.84
2022-11-01T03:52:50.324Z,96509.66
2022-11-01T03:55:19.257Z,96509.88
2022-11-01T03:58:00.277Z,96504.84
2022-11-01T04:00:33.369Z,96507.69
2022-11-01T04:03:01.391Z,96503.72
2022-11-01T04:05:30.823Z,96504.94
2022-11-01T04:07:58.018Z,96507.97
2022-11-01T04:10:27.483Z,96500.94
2022-11-01T04:12:54.543Z,96502.41
2022-11-01T04:15:41.543Z,96506.84
2022-11-01T04:18:42.981Z,96491.59
2022-11-01T04:21:15.231Z,96503.94
2022-11-01T04:23:43.464Z,96493.94
2022-11-01T04:26:15.704Z,96494.97
2022-11-01T04:28:45.622Z,96487.34
2022-11-01T04:31:12.754Z,96492.94
2022-11-01T04:33:39.770Z,96488.13
2022-11-01T04:36:07.894Z,96490.75
2022-11-01T04:38:34.903Z,96487.34
2022-11-01T04:41:01.847Z,96494.22
2022-11-01T04:43:29.942Z,96498.09
2022-11-01T04:45:57.603Z,96502.34
2022-11-01T04:48:26.327Z,96502.56
2022-11-01T04:50:53.923Z,96505.59
2022-11-01T04:53:20.927Z,96497.25
2022-11-01T04:55:47.971Z,96505.41
2022-11-01T04:58:15.082Z,96494.38
2022-11-01T05:00:44.094Z,96493.56
2022-11-01T05:03:12.273Z,96494.38
2022-11-01T05:05:39.862Z,96487.53
2022-11-01T05:08:11.823Z,96489.16
2022-11-01T05:10:44.522Z,96499.59
2022-11-01T05:13:13.145Z,96487.75
2022-11-01T05:15:53.213Z,96492.75
2022-11-01T05:18:27.191Z,96480.34
2022-11-01T05:20:54.099Z,96482.16
2022-11-01T05:23:21.007Z,96489.63
2022-11-01T05:25:47.957Z,96491.50
2022-11-01T05:28:14.982Z,96486.28
2022-11-01T05:30:42.883Z,96501.78
2022-11-01T05:33:11.417Z,96484.75
2022-11-01T05:35:38.572Z,96487.78
2022-11-01T05:38:06.616Z,96489.00
2022-11-01T05:40:34.007Z,96489.50
2022-11-01T05:43:01.543Z,96487.47
2022-11-01T05:45:28.668Z,96480.66
2022-11-01T05:47:55.618Z,96486.69
2022-11-01T05:50:22.686Z,96484.28
2022-11-01T05:52:50.254Z,96487.53
2022-11-01T05:55:17.393Z,96495.56
2022-11-01T05:57:44.454Z,96492.94
2022-11-01T06:00:12.247Z,96497.56
2022-11-01T06:02:39.274Z,96501.56
2022-11-01T06:05:06.432Z,96487.47
2022-11-01T06:07:35.947Z,96494.22
2022-11-01T06:10:03.593Z,96491.63
2022-11-01T06:12:30.684Z,96490.97
2022-11-01T06:14:57.606Z,96484.75
2022-11-01T06:17:25.151Z,96492.31
2022-11-01T06:19:52.117Z,96489.25
2022-11-01T06:22:19.081Z,96497.25
2022-11-01T06:24:46.105Z,96491.31
2022-11-01T06:27:13.167Z,96498.06
2022-11-01T06:29:40.155Z,96492.25
2022-11-01T06:32:07.145Z,96493.44
2022-11-01T06:34:34.417Z,96499.38
2022-11-01T06:37:01.590Z,96510.53
2022-11-01T06:39:28.878Z,96505.25
2022-11-01T06:41:55.969Z,96505.97
2022-11-01T06:44:23.232Z,96506.19
2022-11-01T06:46:50.216Z,96507.50
2022-11-01T06:49:19.148Z,96505.41
2022-11-01T06:51:47.067Z,96512.34
2022-11-01T06:54:14.468Z,96507.41
2022-11-01T06:56:41.470Z,96507.47
2022-11-01T06:59:09.359Z,96504.91
2022-11-01T07:01:36.503Z,96501.34
2022-11-01T07:04:03.689Z,96507.75
2022-11-01T07:06:31.262Z,96499.59
2022-11-01T07:09:01.475Z,96487.59
2022-11-01T07:11:31.416Z,96501.59
2022-11-01T07:14:00.171Z,96492.63
2022-11-01T07:16:28.149Z,96492.84
2022-11-01T07:18:55.585Z,96499.34
2022-11-01T07:21:23.035Z,96495.94
2022-11-01T07:23:50.396Z,96501.28
2022-11-01T07:26:17.340Z,96508.81
2022-11-01T07:28:44.309Z,96506.06
2022-11-01T07:31:11.296Z,96507.22
2022-11-01T07:33:38.796Z,96500.56
2022-11-01T07:36:06.153Z,96501.38
2022-11-01T07:38:33.738Z,96503.19
2022-11-01T07:41:00.851Z,96500.81
2022-11-01T07:43:27.835Z,96505.13
2022-11-01T07:46:00.301Z,96502.38
2022-11-01T07:48:27.865Z,96512.03
2022-11-01T07:50:57.456Z,96513.19
2022-11-01T07:53:24.954Z,96509.28
2022-11-01T07:55:52.471Z,96511.97
2022-11-01T07:58:19.447Z,96514.16
2022-11-01T08:00:46.539Z,96506.81
2022-11-01T08:03:15.807Z,96513.44
2022-11-01T08:05:43.791Z,96510.47
2022-11-01T08:08:11.367Z,96515.84
2022-11-01T08:10:39.298Z,96504.88
2022-11-01T08:13:14.464Z,96507.81
2022-11-01T08:15:41.619Z,96509.72
2022-11-01T08:18:08.865Z,96507.16
2022-11-01T08:20:36.054Z,96504.47
2022-11-01T08:23:04.055Z,96504.56
2022-11-01T08:25:31.695Z,96501.66
2022-11-01T08:28:19.966Z,96498.13
2022-11-01T08:30:48.785Z,96494.94
2022-11-01T08:33:16.064Z,96488.06
2022-11-01T08:35:49.863Z,96491.72
2022-11-01T08:38:17.386Z,96489.78
2022-11-01T08:40:44.317Z,96488.63
2022-11-01T08:43:11.296Z,96484.13
2022-11-01T08:45:38.457Z,96489.03
2022-11-01T08:48:05.794Z,96480.84
2022-11-01T08:50:34.618Z,96482.31
2022-11-01T08:53:06.414Z,96475.72
2022-11-01T08:55:37.568Z,96473.72
2022-11-01T08:58:07.021Z,96485.22
2022-11-01T09:00:34.605Z,96480.88
2022-11-01T09:03:01.656Z,96476.81
2022-11-01T09:05:31.747Z,96473.00
2022-11-01T09:08:00.438Z,96468.38
2022-11-01T09:10:31.085Z,96470.06
2022-11-01T09:13:02.467Z,96467.78
2022-11-01T09:15:30.698Z,96463.38
2022-11-01T09:17:58.120Z,96470.81
2022-11-01T09:20:26.675Z,96476.13
2022-11-01T09:22:53.625Z,96477.44
2022-11-01T09:25:20.685Z,96478.56
2022-11-01T09:27:47.615Z,96477.25
2022-11-01T09:30:14.797Z,96479.34
2022-11-01T09:32:41.837Z,96482.00
2022-11-01T09:35:09.331Z,96474.88
2022-11-01T09:37:36.356Z,96480.34
2022-11-01T09:40:03.864Z,96466.63
2022-11-01T09:42:34.625Z,96477.09
2022-11-01T09:45:08.295Z,96480.47
2022-11-01T09:47:36.916Z,96475.91
2022-11-01T09:50:17.834Z,96477.03
2022-11-01T09:52:44.997Z,96480.03
2022-11-01T09:55:17.757Z,96480.94
2022-11-01T09:57:51.020Z,96478.06
2022-11-01T10:00:21.867Z,96480.31
2022-11-01T10:06:19.796Z,96469.94
2022-11-01T10:09:42.155Z,96472.34
2022-11-01T10:12:46.038Z,96468.59
2022-11-01T10:15:44.020Z,96466.16
2022-11-01T10:18:20.256Z,96462.63
2022-11-01T10:20:48.400Z,96469.34
2022-11-01T10:23:17.516Z,96468.53
2022-11-01T10:25:51.536Z,96459.53
2022-11-01T10:28:29.897Z,96465.03
2022-11-01T10:31:03.075Z,96449.09
2022-11-01T10:33:32.397Z,96450.78
2022-11-01T10:36:06.105Z,96444.06
2022-11-01T10:39:22.979Z,96445.78
2022-11-01T10:41:52.703Z,96447.91
2022-11-01T10:44:36.105Z,96447.72
2022-11-01T10:47:07.375Z,96449.72
2022-11-01T10:50:04.723Z,96444.59
2022-11-01T10:52:48.036Z,96450.47
2022-11-01T10:55:20.038Z,96454.00
2022-11-01T10:57:56.677Z,96456.25
2022-11-01T11:00:24.013Z,96447.88
2022-11-01T11:03:02.416Z,96445.56
2022-11-01T11:05:31.555Z,96445.50
2022-11-01T11:07:58.614Z,96445.13
2022-11-01T11:10:28.578Z,96440.84
2022-11-01T11:13:03.670Z,96452.66
2022-11-01T11:15:46.167Z,96442.84
2022-11-01T11:18:39.808Z,96445.06
2022-11-01T11:21:10.046Z,96452.22
2022-11-01T11:23:42.781Z,96449.69
2022-11-01T11:26:20.836Z,96450.56
2022-11-01T11:28:57.194Z,96447.16
2022-11-01T11:31:32.216Z,96443.88
2022-11-01T11:34:03.296Z,96443.59
2022-11-01T11:36:34.914Z,96447.06
2022-11-01T11:39:03.220Z,96442.66
2022-11-01T11:41:33.457Z,96438.41
2022-11-01T11:44:00.708Z,96433.69
2022-11-01T11:46:28.182Z,96436.22
2022-11-01T11:49:07.381Z,96445.47
2022-11-01T11:51:38.501Z,96445.97
2022-11-01T11:54:05.499Z,96444.38
2022-11-01T11:56:32.721Z,96445.78
2022-11-01T11:59:08.682Z,96442.38
2022-11-01T12:13:49.009Z,96437.69
2022-11-01T12:16:25.076Z,96443.31
2022-11-01T12:18:55.425Z,96445.34
2022-11-01T12:21:34.581Z,96444.59
2022-11-01T12:24:20.266Z,96450.28
2022-11-01T12:26:49.917Z,96436.06
2022-11-01T12:29:37.574Z,96452.09
2022-11-01T12:32:14.836Z,96450.69
2022-11-01T12:34:44.485Z,96456.97
2022-11-01T12:37:26.764Z,96456.63
2022-11-01T12:40:17.240Z,96457.25
2022-11-01T12:42:55.377Z,96462.78
2022-11-01T12:45:25.244Z,96452.09
2022-11-01T12:48:01.285Z,96454.13
2022-11-01T12:50:48.681Z,96457.47
2022-11-01T12:53:21.808Z,96463.38
2022-11-01T12:55:49.066Z,96467.56
2022-11-01T12:58:20.351Z,96472.88
2022-11-01T13:00:50.206Z,96466.22
2022-11-01T13:03:45.805Z,96457.19
2022-11-01T13:06:52.644Z,96463.38
2022-11-01T13:09:43.331Z,96462.88
2022-11-01T13:12:27.413Z,96471.72
2022-11-01T13:15:10.613Z,96474.38
2022-11-01T13:17:56.530Z,96471.03
2022-11-01T13:20:38.037Z,96469.19
2022-11-01T13:23:15.410Z,96478.56
2022-11-01T13:25:52.465Z,96477.34
2022-11-01T13:28:38.315Z,96481.91
2022-11-01T13:31:30.919Z,96480.59
2022-11-01T13:34:12.617Z,96480.53
2022-11-01T13:36:59.096Z,96486.66
2022-11-01T13:39:52.587Z,96489.28
2022-11-01T13:42:24.716Z,96496.69
2022-11-01T13:45:04.156Z,96492.50
2022-11-01T13:47:59.989Z,96506.38
2022-11-01T13:50:36.504Z,96513.06
2022-11-01T13:53:15.403Z,96505.69
2022-11-01T13:55:52.076Z,96513.09
2022-11-01T13:58:20.625Z,96519.06
2022-11-01T14:00:51.722Z,96512.44
2022-11-01T14:03:23.422Z,96521.59
2022-11-01T14:06:09.651Z,96518.38
2022-11-01T14:08:42.791Z,96525.31
2022-11-01T14:11:34.596Z,96532.50
2022-11-01T14:14:45.197Z,96527.47
2022-11-01T14:17:24.287Z,96527.31
2022-11-01T14:19:58.793Z,96530.91
2022-11-01T14:22:33.955Z,96530.97
2022-11-01T14:25:23.993Z,96528.91
2022-11-01T14:28:11.995Z,96529.81
2022-11-01T14:30:42.601Z,96532.50
2022-11-01T14:33:14.988Z,96528.56
2022-11-01T14:35:47.628Z,96533.63
2022-11-01T14:38:20.481Z,96549.53
2022-11-01T14:40:59.476Z,96549.81
2022-11-01T14:43:36.277Z,96553.00
2022-11-01T14:46:09.898Z,96550.09
2022-11-01T14:48:46.655Z,96560.16
2022-11-01T14:51:35.358Z,96564.41
2022-11-01T14:54:28.721Z,96567.31
2022-11-01T14:56:58.162Z,96566.28
2022-11-01T14:59:32.307Z,96568.66
2022-11-01T15:02:03.586Z,96569.16
2022-11-01T15:04:41.296Z,96573.13
2022-11-01T15:07:29.422Z,96579.47
2022-11-01T15:09:59.454Z,96580.00
2022-11-01T15:12:29.878Z,96584.22
2022-11-01T15:14:58.456Z,96582.38
2022-11-01T15:17:29.534Z,96578.16
2022-11-01T15:19:59.304Z,96573.38
2022-11-01T15:22:30.605Z,96577.63
2022-11-01T15:25:04.990Z,96571.03
2022-11-01T15:27:43.878Z,96577.34
2022-11-01T15:30:24.237Z,96573.63
2022-11-01T15:32:56.626Z,96571.53
2022-11-01T15:35:26.277Z,96575.75
2022-11-01T15:37:54.678Z,96582.09
2022-11-01T15:40:29.245Z,96579.44
2022-11-01T15:43:02.670Z,96579.16
2022-11-01T15:45:36.547Z,96581.50
2022-11-01T15:48:09.381Z,96589.13
2022-11-01T15:50:40.586Z,96577.97
2022-11-01T15:53:11.713Z,96588.47
2022-11-01T15:55:45.459Z,96597.38
2022-11-01T15:58:20.190Z,96597.31
2022-11-01T16:00:53.587Z,96595.69
2022-11-01T16:03:40.008Z,96599.09
2022-11-01T16:06:22.397Z,96605.34
2022-11-01T16:09:03.052Z,96609.53
2022-11-01T16:11:32.656Z,96606.59
2022-11-01T16:14:04.096Z,96614.22
2022-11-01T16:16:58.745Z,96610.75
2022-11-01T16:19:40.099Z,96623.84
2022-11-01T16:22:32.699Z,96640.66
2022-11-01T16:25:12.444Z,96635.09
2022-11-01T16:27:53.929Z,96636.31
2022-11-01T16:30:46.101Z,96637.56
2022-11-01T16:33:29.875Z,96642.75
2022-11-01T16:36:03.873Z,96646.13
2022-11-01T16:38:33.591Z,96647.44
2022-11-01T16:41:03.144Z,96649.50
2022-11-01T16:43:33.048Z,96646.06
2022-11-01T16:46:00.926Z,96640.50
2022-11-01T16:48:34.400Z,96648.09
2022-11-01T16:51:03.776Z,96656.00
2022-11-01T16:53:31.313Z,96665.50
2022-11-01T16:56:34.245Z,96667.56
2022-11-01T16:58:59.574Z,96661.47
2022-11-01T17:01:35.251Z,96671.44
2022-11-01T17:04:04.340Z,96682.72
2022-11-01T17:06:36.139Z,96672.38
2022-11-01T17:09:12.058Z,96669.44
2022-11-01T17:11:39.329Z,96669.63
2022-11-01T17:14:06.317Z,96673.28
2022-11-01T17:16:34.051Z,96663.56
2022-11-01T17:19:02.608Z,96665.63
2022-11-01T17:21:32.696Z,96681.69
2022-11-01T17:23:59.677Z,96700.34
2022-11-01T17:26:26.741Z,96711.72
2022-11-01T17:28:53.638Z,96706.78
2022-11-01T17:31:20.706Z,96704.50
2022-11-01T17:33:48.271Z,96704.66
2022-11-01T17:36:17.294Z,96709.13
2022-11-01T17:38:45.285Z,96710.97
2022-11-01T17:41:18.357Z,96715.44
2022-11-01T17:43:46.141Z,96710.91
2022-11-01T17:46:20.255Z,96722.66
2022-11-01T17:48:47.235Z,96729.44
2022-11-01T17:51:14.224Z,96730.28
2022-11-01T17:53:42.409Z,96732.19
2022-11-01T17:56:09.675Z,96728.53
2022-11-01T17:58:36.838Z,96728.53
2022-11-01T18:01:04.636Z,96735.63
2022-11-01T18:03:32.043Z,96745.91
2022-11-01T18:05:59.875Z,96733.13
2022-11-01T18:08:30.996Z,96735.03
2022-11-01T18:11:31.459Z,96731.34
2022-11-01T18:14:07.864Z,96722.06
2022-11-01T18:16:51.021Z,96727.63
2022-11-01T18:19:22.194Z,96719.25
2022-11-01T18:21:49.237Z,96717.91
2022-11-01T18:24:22.652Z,96719.81
2022-11-01T18:26:50.024Z,96710.78
2022-11-01T18:29:19.857Z,96702.41
2022-11-01T18:31:57.446Z,96707.13
2022-11-01T18:34:35.337Z,96705.78
2022-11-01T18:37:28.636Z,96711.28
2022-11-01T18:40:09.756Z,96714.97
2022-11-01T18:42:37.563Z,96727.25
2022-11-01T18:45:31.055Z,96722.00
2022-11-01T18:48:13.025Z,96714.34
2022-11-01T18:50:41.946Z,96714.34
2022-11-01T18:53:08.851Z,96688.50
2022-11-01T18:55:35.955Z,96690.34
2022-11-01T18:58:16.289Z,96700.56
2022-11-01T19:00:43.933Z,96718.09
2022-11-01T19:03:14.977Z,96726.81
2022-11-01T19:05:43.272Z,96729.50
2022-11-01T19:08:23.782Z,96718.25
2022-11-01T19:10:52.792Z,96726.94
2022-11-01T19:13:29.723Z,96723.25
2022-11-01T19:16:00.214Z,96723.03
2022-11-01T19:18:28.942Z,96718.81
2022-11-01T19:21:00.875Z,96714.34
2022-11-01T19:23:40.291Z,96705.41
2022-11-01T19:26:29.153Z,96710.34
2022-11-01T19:28:56.154Z,96714.09
2022-11-01T19:31:33.852Z,96721.19
2022-11-01T19:34:10.967Z,96722.16
2022-11-01T19:36:40.440Z,96721.91
2022-11-01T19:39:40.912Z,96720.56
2022-11-01T19:42:26.575Z,96726.88
2022-11-01T19:45:27.985Z,96754.44
2022-11-01T19:47:55.753Z,96759.69
2022-11-01T19:50:30.240Z,96760.03
2022-11-01T19:53:00.102Z,96745.03
2022-11-01T19:55:55.722Z,96752.13
2022-11-01T19:58:42.163Z,96745.84
2022-11-01T20:01:23.298Z,96750.94
2022-11-01T20:03:57.441Z,96750.59
2022-11-01T20:06:30.126Z,96750.69
2022-11-01T20:09:09.609Z,96754.88
2022-11-01T20:11:36.611Z,96773.56
2022-11-01T20:14:03.657Z,96775.84
2022-11-01T20:16:31.174Z,96758.94
2022-11-01T20:18:58.152Z,96755.28
2022-11-01T20:21:25.166Z,96760.88
2022-11-01T20:23:52.524Z,96763.97
2022-11-01T20:26:19.453Z,96777.34
2022-11-01T20:28:46.469Z,96782.63
2022-11-01T20:31:13.512Z,96799.28
2022-11-01T20:33:41.161Z,96799.94
2022-11-01T20:36:11.321Z,96810.69
2022-11-01T20:38:39.223Z,96812.53
2022-11-01T20:41:06.577Z,96822.03
2022-11-01T20:43:33.554Z,96817.00
2022-11-01T20:46:00.553Z,96820.41
2022-11-01T20:48:27.629Z,96830.25
2022-11-01T20:50:54.576Z,96817.88
2022-11-01T20:53:24.825Z,96803.94
2022-11-01T20:55:55.713Z,96805.75
2022-11-01T20:58:22.678Z,96801.84
2022-11-01T21:00:51.705Z,96809.19
2022-11-01T21:03:24.652Z,96790.84
2022-11-01T21:05:52.002Z,96790.84
2022-11-01T21:08:24.073Z,96797.69
2022-11-01T21:11:01.206Z,96812.13
2022-11-01T21:13:37.853Z,96809.91
2022-11-01T21:16:14.373Z,96812.63
2022-11-01T21:18:45.152Z,96811.25
2022-11-01T21:21:15.234Z,96817.56
2022-11-01T21:23:44.361Z,96808.22
2022-11-01T21:26:21.377Z,96808.06
2022-11-01T21:28:53.565Z,96806.22
2022-11-01T21:31:32.413Z,96811.66
2022-11-01T21:34:02.029Z,96799.38
2022-11-01T21:36:34.693Z,96808.13
2022-11-01T21:39:22.312Z,96809.38
2022-11-01T21:41:51.509Z,96794.34
2022-11-01T21:44:40.080Z,96794.13
2022-11-01T21:47:23.472Z,96803.03
2022-11-01T21:49:50.976Z,96801.78
2022-11-01T21:52:21.024Z,96790.78
2022-11-01T21:54:48.871Z,96769.41
2022-11-01T21:57:16.912Z,96782.56
2022-11-01T21:59:44.275Z,96781.06
2022-11-01T22:02:14.015Z,96775.53
2022-11-01T22:04:41.181Z,96774.03
2022-11-01T22:07:09.353Z,96781.13
2022-11-01T22:09:36.311Z,96771.38
2022-11-01T22:12:03.734Z,96773.22
2022-11-01T22:14:30.926Z,96768.75
2022-11-01T22:16:58.297Z,96773.69
2022-11-01T22:19:25.325Z,96770.59
2022-11-01T22:21:52.263Z,96768.75
2022-11-01T22:24:19.361Z,96768.75
2022-11-01T22:26:46.331Z,96761.16
2022-11-01T22:29:13.271Z,96761.16
2022-11-01T22:31:40.219Z,96757.50
2022-11-01T22:34:07.248Z,96761.47
2022-11-01T22:36:36.645Z,96764.41
2022-11-01T22:39:14.333Z,96762.81
2022-11-01T22:41:41.646Z,96777.84
2022-11-01T22:44:14.639Z,96769.66
2022-11-01T22:46:54.899Z,96768.63
2022-11-01T22:49:35.412Z,96759.72
2022-11-01T22:52:23.074Z,96764.16
2022-11-01T22:55:01.999Z,96766.31
2022-11-01T22:57:33.563Z,96768.69
2022-11-01T23:00:27.524Z,96761.59
2022-11-01T23:03:13.230Z,96765.59
2022-11-01T23:05:42.171Z,96760.31
2022-11-01T23:08:26.415Z,96754.69
2022-11-01T23:10:54.085Z,96751.88
2022-11-01T23:13:44.622Z,96750.03
2022-11-01T23:16:15.942Z,96763.44
2022-11-01T23:18:44.092Z,96763.44
2022-11-01T23:21:11.059Z,96764.59
2022-11-01T23:23:42.223Z,96756.94
2022-11-01T23:26:10.521Z,96763.88
2022-11-01T23:28:40.590Z,96754.16
2022-11-01T23:31:07.950Z,96752.59
2022-11-01T23:33:49.360Z,96751.88
2022-11-01T23:36:23.652Z,96758.00
2022-11-01T23:41:48.854Z,96761.44
2022-11-01T23:44:21.393Z,96764.06
2022-11-01T23:46:49.005Z,96768.06
2022-11-01T23:49:23.294Z,96768.56
2022-11-01T23:51:51.492Z,96766.75
2022-11-01T23:54:47.730Z,96765.28
2022-11-01T23:57:20.572Z,96770.19
2022-11-01T23:59:50.012Z,96772.88
